createdAt,value
2022-12-28T00:08:25.060Z,75.06
2022-12-28T00:18:29.050Z,75.57
2022-12-28T00:28:33.428Z,75.82
2022-12-28T00:38:38.791Z,76.06
2022-12-28T00:48:43.205Z,76.15
2022-12-28T00:58:48.613Z,76.57
2022-12-28T01:08:52.788Z,76.61
2022-12-28T01:18:58.917Z,77.18
2022-12-28T01:29:03.502Z,77.78
2022-12-28T01:39:09.192Z,77.63
2022-12-28T01:49:22.185Z,77.92
2022-12-28T01:59:31.212Z,78.50
2022-12-28T02:09:40.948Z,78.79
2022-12-28T02:19:47.820Z,79.44
2022-12-28T02:30:12.865Z,79.94
2022-12-28T02:40:26.265Z,80.49
2022-12-28T02:50:46.596Z,80.33
2022-12-28T03:01:02.568Z,80.29
2022-12-28T03:11:18.398Z,80.68
2022-12-28T03:21:42.621Z,80.92
2022-12-28T03:31:48.127Z,81.19
2022-12-28T03:42:17.751Z,81.56
2022-12-28T03:52:22.278Z,81.17
2022-12-28T04:02:26.286Z,80.98
2022-12-28T04:12:31.144Z,81.23
2022-12-28T04:22:46.187Z,81.46
2022-12-28T04:32:51.066Z,81.36
2022-12-28T04:42:55.142Z,81.38
2022-12-28T04:53:00.529Z,81.51
2022-12-28T05:03:04.990Z,81.56
2022-12-28T05:13:09.211Z,81.89
2022-12-28T05:23:13.081Z,81.30
2022-12-28T05:33:17.274Z,81.86
2022-12-28T05:43:22.147Z,82.13
2022-12-28T05:53:25.973Z,82.14
2022-12-28T06:03:30.003Z,82.59
2022-12-28T06:13:34.773Z,82.72
2022-12-28T06:23:39.470Z,82.53
2022-12-28T06:33:44.050Z,82.49
2022-12-28T06:43:49.987Z,82.72
2022-12-28T06:53:55.170Z,82.41
2022-12-28T07:04:02.749Z,82.77
2022-12-28T07:14:07.477Z,82.84
2022-12-28T07:24:12.298Z,82.32
2022-12-28T07:34:16.680Z,82.26
2022-12-28T07:44:21.160Z,82.25
2022-12-28T07:54:25.133Z,81.64
2022-12-28T08:04:30.012Z,81.07
2022-12-28T08:14:34.489Z,79.97
2022-12-28T08:24:39.111Z,78.45
2022-12-28T08:34:44.671Z,77.69
2022-12-28T08:44:48.802Z,75.57
2022-12-28T08:54:53.069Z,74.01
2022-12-28T09:04:57.640Z,72.95
2022-12-28T09:15:01.586Z,72.42
2022-12-28T09:25:06.407Z,71.52
2022-12-28T09:35:10.665Z,70.59
2022-12-28T09:45:15.794Z,69.97
2022-12-28T09:55:21.147Z,68.99
2022-12-28T10:05:25.782Z,68.45
2022-12-28T10:15:29.975Z,67.44
2022-12-28T10:25:34.142Z,67.16
2022-12-28T10:35:43.864Z,66.77
2022-12-28T10:45:52.189Z,66.10
2022-12-28T10:56:13.206Z,65.78
2022-12-28T11:06:28.840Z,65.62
2022-12-28T11:16:37.902Z,65.53
2022-12-28T11:26:50.267Z,65.01
2022-12-28T11:36:56.024Z,64.11
2022-12-28T11:47:07.230Z,64.27
2022-12-28T11:57:11.893Z,63.72
2022-12-28T12:07:27.430Z,63.24
2022-12-28T12:18:15.806Z,63.01
2022-12-28T12:28:46.678Z,62.44
2022-12-28T12:39:14.626Z,62.01
2022-12-28T12:49:43.459Z,62.15
2022-12-28T13:00:12.554Z,62.16
2022-12-28T13:10:31.597Z,62.25
2022-12-28T13:20:36.590Z,62.21
2022-12-28T14:26:53.651Z,63.51
2022-12-28T14:36:58.575Z,63.44
2022-12-28T14:47:33.877Z,63.85
2022-12-28T14:57:46.013Z,63.96
2022-12-28T15:07:49.455Z,64.29
2022-12-28T15:17:52.926Z,64.52
2022-12-28T15:27:55.681Z,64.86
2022-12-28T15:37:58.843Z,65.62
2022-12-28T15:48:02.166Z,65.91
2022-12-28T15:58:05.338Z,66.37
2022-12-28T16:08:08.593Z,66.88
2022-12-28T16:18:11.660Z,66.99
2022-12-28T16:28:14.926Z,66.88
2022-12-28T16:38:20.194Z,66.95
2022-12-28T16:48:23.973Z,67.02
2022-12-28T16:58:27.821Z,66.61
2022-12-28T17:08:30.988Z,66.81
2022-12-28T17:18:34.246Z,66.57
2022-12-28T17:28:37.503Z,66.61
2022-12-28T17:38:41.625Z,66.35
2022-12-28T17:48:44.952Z,66.40
2022-12-28T17:58:49.730Z,66.68
2022-12-28T18:08:52.993Z,66.99
2022-12-28T18:18:56.245Z,67.04
2022-12-28T18:28:59.387Z,67.46
2022-12-28T18:39:04.015Z,67.21
2022-12-28T18:49:07.467Z,67.45
2022-12-28T18:59:10.281Z,67.95
2022-12-28T19:09:13.958Z,67.84
2022-12-28T19:19:18.165Z,67.75
2022-12-28T19:29:22.190Z,67.82
2022-12-28T19:39:25.778Z,67.21
2022-12-28T19:49:47.464Z,65.65
2022-12-28T19:59:53.787Z,64.51
2022-12-28T20:10:00.489Z,64.00
2022-12-28T20:20:06.455Z,63.76
2022-12-28T20:30:11.251Z,63.88
2022-12-28T20:40:15.910Z,63.87
2022-12-28T20:50:19.262Z,63.22
2022-12-28T21:00:23.248Z,62.84
2022-12-28T21:10:26.899Z,62.02
2022-12-28T21:20:37.066Z,62.12
2022-12-28T21:30:41.709Z,61.55
2022-12-28T21:40:45.069Z,61.07
2022-12-28T21:50:48.014Z,60.71
2022-12-28T22:01:10.157Z,60.05
2022-12-28T22:11:32.584Z,60.33
2022-12-28T22:21:35.951Z,61.29
2022-12-28T22:31:39.951Z,62.24
2022-12-28T22:41:42.467Z,62.74
2022-12-28T22:51:45.200Z,63.55
2022-12-28T23:01:51.078Z,63.92
2022-12-28T23:11:53.883Z,63.56
2022-12-28T23:22:15.556Z,64.41
2022-12-28T23:32:18.088Z,64.37
2022-12-28T23:42:20.736Z,63.97
2022-12-28T23:52:26.011Z,63.84
